createdAt,value
2018-07-30T00:00:29.733Z,53.43
2018-07-30T00:02:58.046Z,55.50
2018-07-30T00:05:26.383Z,56.12
2018-07-30T00:07:54.628Z,55.97
2018-07-30T00:10:23.001Z,55.39
2018-07-30T00:12:51.667Z,56.67
2018-07-30T00:15:20.534Z,56.88
2018-07-30T00:17:48.815Z,57.03
2018-07-30T00:20:17.202Z,55.46
2018-07-30T00:22:45.500Z,56.34
2018-07-30T00:25:14.139Z,57.25
2018-07-30T00:27:42.382Z,57.53
2018-07-30T00:30:10.699Z,57.17
2018-07-30T00:32:38.945Z,55.49
2018-07-30T00:35:07.354Z,54.35
2018-07-30T00:37:36.703Z,55.95
2018-07-30T00:40:05.062Z,55.44
2018-07-30T00:42:33.872Z,56.92
2018-07-30T00:45:02.180Z,56.04
2018-07-30T00:47:30.470Z,56.06
2018-07-30T00:49:58.789Z,56.09
2018-07-30T00:52:27.039Z,55.61
2018-07-30T00:54:55.324Z,56.32
2018-07-30T00:57:23.628Z,55.84
2018-07-30T00:59:51.914Z,55.82
2018-07-30T01:02:20.196Z,56.42
2018-07-30T01:04:48.465Z,56.13
2018-07-30T01:07:16.946Z,56.33
2018-07-30T01:09:45.387Z,56.66
2018-07-30T01:12:13.816Z,57.19
2018-07-30T01:14:42.464Z,55.96
2018-07-30T01:17:10.882Z,56.75
2018-07-30T01:19:39.206Z,56.04
2018-07-30T01:22:07.573Z,57.20
2018-07-30T01:24:35.876Z,55.73
2018-07-30T01:27:04.176Z,54.52
2018-07-30T01:29:32.477Z,55.22
2018-07-30T01:32:00.840Z,56.31
2018-07-30T01:34:29.112Z,56.10
2018-07-30T01:36:57.374Z,56.12
2018-07-30T01:39:25.646Z,56.75
2018-07-30T01:41:53.951Z,56.77
2018-07-30T01:44:22.194Z,57.08
2018-07-30T01:46:50.460Z,56.13
2018-07-30T01:49:19.521Z,55.81
2018-07-30T01:51:47.809Z,55.40
2018-07-30T01:54:16.141Z,56.00
2018-07-30T01:56:44.477Z,57.27
2018-07-30T01:59:12.750Z,56.99
2018-07-30T02:01:41.009Z,56.62
2018-07-30T02:04:09.331Z,56.48
2018-07-30T02:06:37.616Z,56.20
2018-07-30T02:09:08.598Z,56.78
2018-07-30T02:11:37.047Z,56.59
2018-07-30T02:14:06.468Z,57.66
2018-07-30T02:16:34.762Z,57.68
2018-07-30T02:19:03.039Z,58.47
2018-07-30T02:21:31.341Z,56.94
2018-07-30T02:23:59.596Z,57.44
2018-07-30T02:26:27.894Z,57.21
2018-07-30T02:28:56.175Z,54.98
2018-07-30T02:31:24.630Z,56.18
2018-07-30T02:33:53.184Z,55.47
2018-07-30T02:36:21.535Z,55.47
2018-07-30T02:38:49.840Z,55.36
2018-07-30T02:41:18.096Z,56.20
2018-07-30T02:43:46.385Z,57.39
2018-07-30T02:46:14.732Z,56.57
2018-07-30T02:48:43.064Z,57.38
2018-07-30T02:51:11.393Z,56.62
2018-07-30T02:53:39.728Z,56.53
2018-07-30T02:56:08.009Z,58.27
2018-07-30T02:58:36.301Z,57.13
2018-07-30T03:01:04.598Z,57.21
2018-07-30T03:03:32.877Z,57.25
2018-07-30T03:06:01.272Z,56.35
2018-07-30T03:08:29.539Z,57.50
2018-07-30T03:10:57.893Z,56.65
2018-07-30T03:13:26.149Z,56.44
2018-07-30T03:15:54.508Z,57.95
2018-07-30T03:18:22.977Z,56.98
2018-07-30T03:20:51.266Z,57.86
2018-07-30T03:23:19.513Z,56.69
2018-07-30T03:25:47.783Z,57.03
2018-07-30T03:28:16.069Z,57.80
2018-07-30T03:30:44.333Z,58.38
2018-07-30T03:33:12.743Z,58.61
2018-07-30T03:35:41.060Z,58.04
2018-07-30T03:38:09.366Z,58.59
2018-07-30T03:40:37.608Z,59.18
2018-07-30T03:43:05.940Z,58.92
2018-07-30T03:45:34.380Z,58.70
2018-07-30T03:48:02.674Z,58.42
2018-07-30T03:50:30.955Z,58.17
2018-07-30T03:52:59.244Z,57.60
2018-07-30T03:55:27.811Z,57.65
2018-07-30T03:57:56.162Z,57.94
2018-07-30T04:00:24.502Z,58.96
2018-07-30T04:02:52.850Z,58.39
2018-07-30T04:05:21.155Z,59.33
2018-07-30T04:07:49.413Z,58.99
2018-07-30T04:10:17.706Z,59.86
2018-07-30T04:12:46.020Z,58.82
2018-07-30T04:15:14.331Z,59.78
2018-07-30T04:17:42.677Z,59.28
2018-07-30T04:20:10.917Z,58.19
2018-07-30T04:22:39.309Z,58.51
2018-07-30T04:25:07.572Z,58.81
2018-07-30T04:27:35.854Z,57.48
2018-07-30T04:30:04.564Z,57.52
2018-07-30T04:32:32.799Z,56.66
2018-07-30T04:35:01.057Z,56.75
2018-07-30T04:37:29.471Z,56.88
2018-07-30T04:39:57.786Z,56.26
2018-07-30T04:42:26.048Z,57.02
2018-07-30T04:44:54.386Z,56.98
2018-07-30T04:47:22.719Z,58.23
2018-07-30T04:49:51.113Z,57.04
2018-07-30T04:52:19.398Z,57.04
2018-07-30T04:54:47.661Z,57.88
2018-07-30T04:57:15.968Z,57.61
2018-07-30T04:59:44.257Z,58.31
2018-07-30T05:02:12.743Z,57.65
2018-07-30T05:04:41.412Z,57.95
2018-07-30T05:07:10.138Z,55.59
2018-07-30T05:09:38.532Z,54.77
2018-07-30T05:12:06.809Z,55.38
2018-07-30T05:14:35.136Z,55.15
2018-07-30T05:17:03.458Z,55.18
2018-07-30T05:19:31.722Z,54.71
2018-07-30T05:21:59.980Z,54.97
2018-07-30T05:24:28.225Z,54.47
2018-07-30T05:26:56.567Z,54.91
2018-07-30T05:29:24.877Z,53.93
2018-07-30T05:31:53.197Z,53.89
2018-07-30T05:34:21.463Z,53.11
2018-07-30T05:36:49.752Z,54.11
2018-07-30T05:39:18.013Z,53.20
2018-07-30T05:41:46.312Z,53.56
2018-07-30T05:44:14.590Z,54.00
2018-07-30T05:46:43.044Z,54.39
2018-07-30T05:49:11.313Z,54.45
2018-07-30T05:51:39.591Z,52.53
2018-07-30T05:54:08.081Z,53.29
2018-07-30T05:56:36.349Z,53.37
2018-07-30T05:59:04.805Z,52.96
2018-07-30T06:01:33.093Z,52.63
2018-07-30T06:04:01.363Z,52.11
2018-07-30T06:06:29.651Z,52.68
2018-07-30T06:08:57.969Z,52.27
2018-07-30T06:11:26.207Z,52.88
2018-07-30T06:13:54.520Z,51.68
2018-07-30T06:16:22.783Z,51.52
2018-07-30T06:18:51.075Z,52.55
2018-07-30T06:21:19.324Z,52.41
2018-07-30T06:23:47.660Z,52.63
2018-07-30T06:26:16.010Z,51.21
2018-07-30T06:28:44.332Z,51.83
2018-07-30T06:31:12.620Z,51.06
2018-07-30T06:33:40.885Z,51.66
2018-07-30T06:36:09.197Z,50.25
2018-07-30T06:38:37.681Z,50.90
2018-07-30T06:41:06.034Z,51.14
2018-07-30T06:43:34.304Z,51.84
2018-07-30T06:46:02.639Z,52.68
2018-07-30T06:48:30.909Z,51.98
2018-07-30T06:50:59.186Z,51.79
2018-07-30T06:53:27.494Z,52.45
2018-07-30T06:55:55.794Z,52.12
2018-07-30T06:58:24.045Z,52.06
2018-07-30T07:00:52.381Z,53.91
2018-07-30T07:03:21.049Z,52.14
2018-07-30T07:05:49.357Z,51.57
2018-07-30T07:08:17.659Z,51.93
2018-07-30T07:10:45.907Z,52.27
2018-07-30T07:13:14.200Z,52.51
2018-07-30T07:15:42.474Z,51.58
2018-07-30T07:18:10.731Z,51.16
2018-07-30T07:20:39.069Z,50.27
2018-07-30T07:23:07.322Z,50.48
2018-07-30T07:25:35.581Z,49.59
2018-07-30T07:28:04.321Z,49.07
2018-07-30T07:30:32.738Z,49.12
2018-07-30T07:33:01.010Z,48.50
2018-07-30T07:35:29.306Z,47.52
2018-07-30T07:37:57.609Z,48.61
2018-07-30T07:40:25.972Z,47.09
2018-07-30T07:42:54.301Z,47.75
2018-07-30T07:45:22.573Z,46.58
2018-07-30T07:47:50.825Z,47.29
2018-07-30T07:50:19.366Z,45.88
2018-07-30T07:52:47.551Z,46.19
2018-07-30T07:55:15.862Z,46.69
2018-07-30T07:57:44.159Z,46.52
2018-07-30T08:00:12.551Z,47.66
2018-07-30T08:02:40.881Z,45.72
2018-07-30T08:05:09.425Z,45.53
2018-07-30T08:07:38.160Z,45.30
2018-07-30T08:10:06.884Z,45.38
2018-07-30T08:12:35.216Z,45.43
2018-07-30T08:15:03.585Z,45.23
2018-07-30T08:17:31.894Z,43.32
2018-07-30T08:20:00.200Z,45.70
2018-07-30T08:22:28.525Z,44.03
2018-07-30T08:24:56.796Z,44.08
2018-07-30T08:27:25.139Z,44.56
2018-07-30T08:29:54.089Z,42.54
2018-07-30T08:32:22.421Z,44.37
2018-07-30T08:34:50.779Z,44.66
2018-07-30T08:37:19.038Z,45.33
2018-07-30T08:39:47.364Z,44.32
2018-07-30T08:42:15.886Z,45.27
2018-07-30T08:44:50.749Z,43.99
2018-07-30T08:47:18.984Z,45.43
2018-07-30T08:49:47.337Z,45.16
2018-07-30T08:52:16.083Z,44.47
2018-07-30T08:54:44.376Z,43.08
2018-07-30T08:57:12.835Z,44.81
2018-07-30T08:59:41.104Z,42.63
2018-07-30T09:02:09.724Z,43.33
2018-07-30T09:04:38.168Z,44.67
2018-07-30T09:07:06.434Z,44.39
2018-07-30T09:09:34.702Z,42.71
2018-07-30T09:12:03.015Z,42.08
2018-07-30T09:14:31.289Z,42.24
2018-07-30T09:16:59.533Z,42.85
2018-07-30T09:19:27.978Z,42.76
2018-07-30T09:21:56.384Z,41.70
2018-07-30T09:24:24.701Z,42.20
2018-07-30T09:26:53.068Z,41.03
2018-07-30T09:29:21.923Z,40.88
2018-07-30T09:31:50.209Z,40.85
2018-07-30T09:34:18.605Z,40.72
2018-07-30T09:36:46.863Z,40.53
2018-07-30T09:39:15.319Z,40.63
2018-07-30T09:41:43.547Z,39.87
2018-07-30T09:44:11.854Z,40.14
2018-07-30T09:46:40.172Z,39.51
2018-07-30T09:49:08.459Z,40.85
2018-07-30T09:51:36.750Z,40.17
2018-07-30T09:54:05.077Z,38.91
2018-07-30T09:56:33.327Z,40.55
2018-07-30T09:59:01.585Z,39.32
2018-07-30T10:01:31.356Z,40.05
2018-07-30T10:04:00.632Z,39.77
2018-07-30T10:06:29.021Z,38.26
2018-07-30T10:08:57.318Z,37.77
2018-07-30T10:11:25.619Z,38.98
2018-07-30T10:13:54.236Z,39.28
2018-07-30T10:16:22.590Z,39.87
2018-07-30T10:18:50.907Z,38.98
2018-07-30T10:21:19.904Z,39.23
2018-07-30T10:23:48.274Z,38.71
2018-07-30T10:26:16.835Z,38.80
2018-07-30T10:28:45.128Z,37.55
2018-07-30T10:31:13.500Z,37.42
2018-07-30T10:33:41.792Z,36.91
2018-07-30T10:36:10.048Z,37.92
2018-07-30T10:38:38.644Z,37.91
2018-07-30T10:41:06.959Z,36.95
2018-07-30T10:43:35.476Z,37.69
2018-07-30T10:46:04.212Z,36.48
2018-07-30T10:48:32.574Z,36.56
2018-07-30T10:51:00.958Z,35.73
2018-07-30T10:53:29.246Z,36.12
2018-07-30T10:55:57.519Z,33.95
2018-07-30T10:58:25.809Z,35.91
2018-07-30T11:00:54.360Z,34.96
2018-07-30T11:03:22.913Z,35.40
2018-07-30T11:05:51.344Z,35.41
2018-07-30T11:08:19.711Z,36.40
2018-07-30T11:10:47.966Z,34.13
2018-07-30T11:13:16.429Z,33.74
2018-07-30T11:15:44.690Z,35.75
2018-07-30T11:18:13.067Z,36.02
2018-07-30T11:20:41.365Z,34.48
2018-07-30T11:23:09.663Z,35.28
2018-07-30T11:25:37.977Z,34.48
2018-07-30T11:28:06.377Z,35.34
2018-07-30T11:30:34.612Z,36.21
2018-07-30T11:33:02.889Z,35.64
2018-07-30T11:35:31.192Z,35.72
2018-07-30T11:37:59.462Z,35.77
2018-07-30T11:40:29.634Z,34.56
2018-07-30T11:42:57.941Z,35.56
2018-07-30T11:45:26.506Z,34.17
2018-07-30T11:47:54.755Z,33.86
2018-07-30T11:50:23.109Z,33.37
2018-07-30T11:52:51.372Z,33.40
2018-07-30T11:55:19.713Z,33.85
2018-07-30T11:57:47.983Z,32.88
2018-07-30T12:00:16.286Z,33.12
2018-07-30T12:02:44.829Z,32.69
2018-07-30T12:05:13.195Z,33.95
2018-07-30T12:07:41.534Z,32.92
2018-07-30T12:10:09.783Z,32.52
2018-07-30T12:12:38.120Z,30.28
2018-07-30T12:15:06.460Z,30.85
2018-07-30T12:17:34.803Z,31.97
2018-07-30T12:20:03.152Z,31.54
2018-07-30T12:22:31.429Z,31.63
2018-07-30T12:25:00.044Z,31.71
2018-07-30T12:27:28.349Z,32.85
2018-07-30T12:29:56.679Z,32.05
2018-07-30T12:32:24.976Z,31.07
2018-07-30T12:34:53.251Z,31.02
2018-07-30T12:37:21.567Z,32.62
2018-07-30T12:39:49.825Z,30.91
2018-07-30T12:42:18.176Z,29.50
2018-07-30T12:44:46.510Z,30.05
2018-07-30T12:47:14.857Z,27.99
2018-07-30T12:49:43.317Z,28.17
2018-07-30T12:52:11.660Z,26.56
2018-07-30T12:54:39.950Z,27.79
2018-07-30T12:57:08.445Z,28.44
2018-07-30T12:59:36.821Z,28.73
2018-07-30T13:02:05.113Z,29.79
2018-07-30T13:04:33.430Z,29.91
2018-07-30T13:07:01.775Z,30.42
2018-07-30T13:09:30.572Z,29.71
2018-07-30T13:11:58.875Z,28.68
2018-07-30T13:14:27.210Z,28.46
2018-07-30T13:16:55.537Z,28.16
2018-07-30T13:19:23.827Z,28.03
2018-07-30T13:21:52.126Z,28.22
2018-07-30T13:24:20.464Z,28.67
2018-07-30T13:26:48.877Z,27.64
2018-07-30T13:29:17.139Z,25.63
2018-07-30T13:31:45.446Z,26.72
2018-07-30T13:34:13.744Z,25.87
2018-07-30T13:36:42.003Z,25.71
2018-07-30T13:39:10.684Z,23.50
2018-07-30T13:41:39.472Z,24.78
2018-07-30T13:44:08.026Z,25.60
2018-07-30T13:46:36.939Z,26.65
2018-07-30T13:49:06.031Z,27.53
2018-07-30T13:51:34.361Z,27.80
2018-07-30T13:54:03.101Z,25.76
2018-07-30T13:56:31.401Z,24.06
2018-07-30T13:58:59.677Z,27.03
2018-07-30T14:01:27.982Z,27.15
2018-07-30T14:03:56.380Z,29.58
2018-07-30T14:06:24.775Z,27.62
2018-07-30T14:08:53.100Z,27.57
2018-07-30T14:11:21.401Z,27.52
2018-07-30T14:13:49.842Z,26.45
2018-07-30T14:16:18.126Z,27.10
2018-07-30T14:18:46.472Z,27.09
2018-07-30T14:21:14.769Z,25.45
2018-07-30T14:23:43.143Z,27.13
2018-07-30T14:26:11.559Z,27.36
2018-07-30T14:28:39.842Z,26.65
2018-07-30T14:31:08.190Z,25.79
2018-07-30T14:33:36.449Z,27.69
2018-07-30T14:36:04.731Z,26.83
2018-07-30T14:38:33.011Z,24.98
2018-07-30T14:41:01.305Z,24.78
2018-07-30T14:43:29.568Z,22.83
2018-07-30T14:45:57.843Z,21.05
2018-07-30T14:48:26.128Z,21.23
2018-07-30T14:50:54.560Z,21.61
2018-07-30T14:53:22.847Z,24.20
2018-07-30T14:55:51.129Z,23.29
2018-07-30T14:58:19.409Z,22.25
2018-07-30T15:00:47.691Z,22.62
2018-07-30T15:03:15.982Z,21.74
2018-07-30T15:05:44.303Z,20.18
2018-07-30T15:08:12.599Z,23.64
2018-07-30T15:10:40.888Z,23.61
2018-07-30T15:13:09.192Z,24.18
2018-07-30T15:15:37.615Z,24.21
2018-07-30T15:18:05.904Z,24.42
2018-07-30T15:20:34.159Z,25.69
2018-07-30T15:23:02.503Z,26.66
2018-07-30T15:25:30.766Z,26.17
2018-07-30T15:27:59.079Z,28.14
2018-07-30T15:30:27.384Z,28.65
2018-07-30T15:32:55.684Z,27.58
2018-07-30T15:35:24.209Z,26.42
2018-07-30T15:37:52.535Z,26.27
2018-07-30T15:40:20.832Z,26.66
2018-07-30T15:42:49.191Z,24.24
2018-07-30T15:45:17.826Z,25.81
2018-07-30T15:47:46.410Z,24.26
2018-07-30T15:50:14.664Z,25.97
2018-07-30T15:52:42.970Z,25.47
2018-07-30T15:55:11.322Z,26.68
2018-07-30T15:57:39.582Z,28.40
2018-07-30T16:00:09.010Z,27.05
2018-07-30T16:02:37.593Z,27.43
2018-07-30T16:05:06.094Z,26.19
2018-07-30T16:07:34.367Z,26.97
2018-07-30T16:12:30.980Z,25.09
2018-07-30T16:14:59.239Z,24.02
2018-07-30T16:17:27.573Z,21.19
2018-07-30T16:19:55.834Z,24.74
2018-07-30T16:22:24.108Z,20.59
2018-07-30T16:24:52.544Z,21.09
2018-07-30T16:27:20.904Z,21.59
2018-07-30T16:29:49.211Z,19.29
2018-07-30T16:32:17.547Z,20.30
2018-07-30T16:34:45.864Z,20.36
2018-07-30T16:37:14.283Z,22.05
2018-07-30T16:39:42.595Z,19.19
2018-07-30T16:42:10.965Z,20.28
2018-07-30T16:44:39.207Z,21.13
2018-07-30T16:47:08.154Z,19.23
2018-07-30T16:49:36.376Z,20.20
2018-07-30T16:52:04.666Z,19.09
2018-07-30T16:54:33.207Z,22.17
2018-07-30T16:57:01.472Z,21.35
2018-07-30T16:59:29.738Z,20.57
2018-07-30T17:01:58.067Z,19.94
2018-07-30T17:04:26.346Z,21.87
2018-07-30T17:06:54.618Z,22.69
2018-07-30T17:09:22.995Z,21.04
2018-07-30T17:11:51.278Z,20.34
2018-07-30T17:14:19.595Z,20.03
2018-07-30T17:16:48.809Z,20.08
2018-07-30T17:19:17.055Z,22.93
2018-07-30T17:21:46.794Z,22.12
2018-07-30T17:24:15.109Z,20.54
2018-07-30T17:26:43.416Z,21.83
2018-07-30T17:29:12.542Z,22.42
2018-07-30T17:31:40.838Z,21.93
2018-07-30T17:34:09.100Z,21.72
2018-07-30T17:36:37.458Z,23.87
2018-07-30T17:39:07.939Z,24.51
2018-07-30T17:41:47.043Z,26.39
2018-07-30T17:44:16.579Z,27.54
2018-07-30T17:46:45.097Z,28.25
2018-07-30T17:49:14.841Z,28.49
2018-07-30T17:51:43.266Z,28.34
2018-07-30T17:54:11.794Z,29.19
2018-07-30T17:56:40.116Z,29.95
2018-07-30T17:59:08.410Z,28.45
2018-07-30T18:01:36.663Z,28.79
2018-07-30T18:04:04.967Z,29.19
2018-07-30T18:06:33.293Z,29.44
2018-07-30T18:09:01.685Z,30.35
2018-07-30T18:11:30.411Z,31.79
2018-07-30T18:13:59.259Z,32.28
2018-07-30T18:16:27.545Z,33.87
2018-07-30T18:18:55.816Z,34.57
2018-07-30T18:21:24.254Z,34.07
2018-07-30T18:23:52.681Z,34.87
2018-07-30T18:26:21.015Z,33.91
2018-07-30T18:28:50.418Z,32.95
2018-07-30T18:31:18.761Z,34.97
2018-07-30T18:33:47.387Z,35.88
2018-07-30T18:36:15.680Z,36.36
2018-07-30T18:38:43.996Z,37.35
2018-07-30T18:41:12.310Z,37.62
2018-07-30T18:43:40.626Z,37.76
2018-07-30T18:46:08.900Z,37.11
2018-07-30T18:48:37.853Z,38.27
2018-07-30T18:51:07.039Z,38.79
2018-07-30T18:53:35.575Z,39.73
2018-07-30T18:56:03.977Z,39.47
2018-07-30T18:58:32.376Z,41.62
2018-07-30T19:01:00.808Z,40.35
2018-07-30T19:03:32.325Z,41.50
2018-07-30T19:06:00.907Z,39.87
2018-07-30T19:08:29.268Z,40.44
2018-07-30T19:10:57.599Z,41.21
2018-07-30T19:13:25.866Z,41.66
2018-07-30T19:15:54.154Z,43.50
2018-07-30T19:18:22.431Z,43.44
2018-07-30T19:20:50.725Z,40.83
2018-07-30T19:23:18.998Z,41.11
2018-07-30T19:25:47.295Z,43.48
2018-07-30T19:28:15.728Z,43.91
2018-07-30T19:30:44.043Z,43.46
2018-07-30T19:33:12.612Z,45.65
2018-07-30T19:35:40.938Z,44.08
2018-07-30T19:38:10.084Z,44.74
2018-07-30T19:40:38.482Z,46.19
2018-07-30T19:43:06.762Z,44.21
2018-07-30T19:45:35.477Z,45.78
2018-07-30T19:51:06.639Z,45.14
2018-07-30T19:53:34.967Z,46.07
2018-07-30T19:56:03.385Z,46.38
2018-07-30T19:58:31.763Z,47.71
2018-07-30T20:01:02.234Z,48.47
2018-07-30T20:03:30.709Z,49.84
2018-07-30T20:06:00.389Z,49.79
2018-07-30T20:08:28.674Z,51.73
2018-07-30T20:10:56.929Z,51.48
2018-07-30T20:13:25.302Z,51.77
2018-07-30T20:15:53.565Z,52.09
2018-07-30T20:18:21.851Z,52.47
2018-07-30T20:20:50.160Z,51.75
2018-07-30T20:23:18.456Z,51.90
2018-07-30T20:25:46.793Z,52.37
2018-07-30T20:28:15.971Z,50.79
2018-07-30T20:30:44.321Z,52.75
2018-07-30T20:33:12.555Z,53.26
2018-07-30T20:35:40.924Z,54.23
2018-07-30T20:38:09.305Z,53.75
2018-07-30T20:40:37.605Z,53.78
2018-07-30T20:43:05.991Z,54.84
2018-07-30T20:45:34.276Z,53.70
2018-07-30T20:48:02.564Z,54.75
2018-07-30T20:50:30.840Z,55.17
2018-07-30T20:52:59.162Z,55.38
2018-07-30T20:55:27.870Z,56.01
2018-07-30T20:57:56.200Z,56.92
2018-07-30T21:00:24.458Z,56.21
2018-07-30T21:02:52.754Z,56.02
2018-07-30T21:05:21.019Z,56.28
2018-07-30T21:07:49.290Z,56.12
2018-07-30T21:10:17.562Z,56.59
2018-07-30T21:12:45.852Z,57.51
2018-07-30T21:15:14.117Z,57.09
2018-07-30T21:17:42.469Z,56.88
2018-07-30T21:20:10.893Z,57.12
2018-07-30T21:22:39.188Z,57.61
2018-07-30T21:25:07.476Z,57.57
2018-07-30T21:27:35.764Z,56.20
2018-07-30T21:30:04.214Z,54.60
2018-07-30T21:32:32.500Z,52.09
2018-07-30T21:35:00.897Z,53.15
2018-07-30T21:37:29.181Z,51.59
2018-07-30T21:39:57.482Z,53.21
2018-07-30T21:42:25.804Z,53.26
2018-07-30T21:44:54.096Z,55.06
2018-07-30T21:47:22.406Z,54.69
2018-07-30T21:49:50.925Z,55.39
2018-07-30T21:52:19.257Z,55.03
2018-07-30T21:54:47.485Z,53.83
2018-07-30T21:57:15.780Z,53.93
2018-07-30T21:59:44.141Z,54.11
2018-07-30T22:02:12.451Z,53.91
2018-07-30T22:04:40.776Z,53.98
2018-07-30T22:07:09.084Z,54.18
2018-07-30T22:09:37.469Z,55.31
2018-07-30T22:12:05.759Z,55.19
2018-07-30T22:14:34.032Z,54.79
2018-07-30T22:17:02.400Z,56.08
2018-07-30T22:19:30.704Z,55.39
2018-07-30T22:21:58.987Z,56.55
2018-07-30T22:24:27.309Z,55.57
2018-07-30T22:26:55.722Z,56.13
2018-07-30T22:29:24.014Z,55.39
2018-07-30T22:31:52.324Z,56.16
2018-07-30T22:34:20.590Z,55.96
2018-07-30T22:36:48.983Z,56.83
2018-07-30T22:39:17.228Z,56.36
2018-07-30T22:41:45.494Z,56.74
2018-07-30T22:44:13.773Z,57.23
2018-07-30T22:46:42.010Z,57.52
2018-07-30T22:49:10.342Z,57.62
2018-07-30T22:51:38.599Z,58.23
2018-07-30T22:54:06.992Z,57.11
2018-07-30T22:56:35.279Z,57.49
2018-07-30T22:59:03.601Z,58.35
2018-07-30T23:01:31.944Z,58.36
2018-07-30T23:04:00.225Z,58.17
2018-07-30T23:06:29.825Z,57.93
2018-07-30T23:08:58.361Z,58.15
2018-07-30T23:11:26.728Z,58.67
2018-07-30T23:13:55.001Z,59.43
2018-07-30T23:16:23.384Z,59.49
2018-07-30T23:18:51.744Z,60.44
2018-07-30T23:21:19.981Z,60.06
2018-07-30T23:23:48.240Z,60.28
2018-07-30T23:26:16.495Z,60.63
2018-07-30T23:28:44.737Z,60.78
2018-07-30T23:31:13.043Z,61.42
2018-07-30T23:33:41.340Z,62.15
2018-07-30T23:36:09.601Z,63.38
2018-07-30T23:38:37.889Z,63.87
2018-07-30T23:41:06.358Z,63.91
2018-07-30T23:43:34.615Z,65.10
2018-07-30T23:46:02.967Z,65.62
2018-07-30T23:48:31.221Z,66.49
2018-07-30T23:50:59.774Z,66.80
2018-07-30T23:53:28.035Z,66.36
2018-07-30T23:55:56.266Z,66.23
2018-07-30T23:58:24.807Z,67.04
